createdAt,value
2019-03-23T00:00:10.148Z,7.42
2019-03-23T00:02:38.946Z,6.12
2019-03-23T00:05:09.155Z,4.75
2019-03-23T00:07:37.784Z,6.25
2019-03-23T00:10:07.084Z,7.03
2019-03-23T00:12:36.029Z,8.28
2019-03-23T00:15:10.026Z,6.00
2019-03-23T00:17:41.477Z,8.00
2019-03-23T00:20:10.473Z,6.75
2019-03-23T00:22:39.123Z,7.40
2019-03-23T00:25:07.746Z,6.67
2019-03-23T00:27:36.339Z,6.95
2019-03-23T00:30:10.308Z,5.35
2019-03-23T00:32:38.944Z,5.55
2019-03-23T00:35:11.365Z,7.40
2019-03-23T00:37:40.403Z,7.00
2019-03-23T00:40:09.731Z,5.87
2019-03-23T00:42:38.441Z,8.35
2019-03-23T00:45:08.179Z,10.90
2019-03-23T00:47:36.570Z,6.58
2019-03-23T00:50:06.083Z,7.55
2019-03-23T00:52:34.499Z,9.10
2019-03-23T00:55:02.888Z,5.55
2019-03-23T00:57:31.280Z,6.87
2019-03-23T00:59:59.921Z,5.83
2019-03-23T01:02:28.559Z,4.87
2019-03-23T01:04:57.194Z,6.85
2019-03-23T01:07:25.583Z,8.98
2019-03-23T01:09:53.983Z,6.37
2019-03-23T01:12:22.377Z,6.35
2019-03-23T01:14:50.765Z,6.58
2019-03-23T01:17:19.232Z,7.05
2019-03-23T01:19:47.625Z,7.42
2019-03-23T01:22:16.017Z,7.97
2019-03-23T01:24:44.646Z,5.30
2019-03-23T01:27:13.045Z,6.60
2019-03-23T01:29:41.438Z,6.45
2019-03-23T01:32:09.907Z,9.43
2019-03-23T01:34:38.374Z,4.95
2019-03-23T01:37:06.798Z,5.70
2019-03-23T01:39:35.187Z,5.90
2019-03-23T01:42:03.761Z,6.70
2019-03-23T01:44:46.145Z,7.50
2019-03-23T01:47:14.794Z,6.83
2019-03-23T01:49:43.191Z,5.60
2019-03-23T01:52:11.951Z,4.92
2019-03-23T01:54:40.414Z,4.58
2019-03-23T01:57:08.818Z,6.45
2019-03-23T01:59:37.222Z,7.65
2019-03-23T02:02:05.877Z,6.45
2019-03-23T02:04:34.267Z,5.33
2019-03-23T02:07:13.167Z,5.85
2019-03-23T02:09:32.831Z,6.40
2019-03-23T02:12:01.338Z,6.87
2019-03-23T02:14:29.729Z,6.15
2019-03-23T02:16:58.122Z,4.80
2019-03-23T02:19:26.585Z,5.85
2019-03-23T02:21:55.002Z,5.30
2019-03-23T02:24:23.497Z,6.53
2019-03-23T02:26:51.891Z,6.08
2019-03-23T02:29:20.417Z,4.83
2019-03-23T02:31:48.843Z,6.28
2019-03-23T02:34:17.253Z,5.10
2019-03-23T02:36:45.899Z,5.90
2019-03-23T02:39:14.276Z,4.92
2019-03-23T02:41:42.709Z,4.97
2019-03-23T02:44:11.105Z,5.62
2019-03-23T02:46:39.734Z,6.12
2019-03-23T02:49:08.147Z,3.70
2019-03-23T02:51:39.621Z,4.22
2019-03-23T02:54:06.654Z,7.22
2019-03-23T02:56:35.126Z,6.37
2019-03-23T02:59:03.780Z,4.97
2019-03-23T03:01:32.199Z,4.70
2019-03-23T03:04:00.602Z,4.08
2019-03-23T03:06:29.330Z,5.78
2019-03-23T03:08:57.794Z,3.80
2019-03-23T03:11:26.199Z,4.35
2019-03-23T03:13:54.587Z,5.33
2019-03-23T03:16:22.998Z,5.08
2019-03-23T03:18:51.429Z,4.20
2019-03-23T03:21:19.821Z,5.50
2019-03-23T03:23:48.245Z,4.37
2019-03-23T03:26:16.878Z,6.67
2019-03-23T03:28:45.291Z,4.95
2019-03-23T03:31:13.712Z,6.67
2019-03-23T03:33:42.111Z,4.65
2019-03-23T03:36:10.600Z,7.25
2019-03-23T03:38:38.995Z,4.50
2019-03-23T03:41:07.462Z,5.45
2019-03-23T03:43:36.103Z,4.72
2019-03-23T03:46:04.510Z,4.95
2019-03-23T03:48:33.142Z,6.08
2019-03-23T03:51:01.528Z,4.75
2019-03-23T03:53:29.919Z,6.05
2019-03-23T03:55:58.323Z,5.45
2019-03-23T03:58:26.731Z,6.53
2019-03-23T04:00:55.217Z,6.03
2019-03-23T04:03:23.911Z,4.58
2019-03-23T04:05:52.556Z,4.97
2019-03-23T04:08:21.186Z,6.47
2019-03-23T04:10:49.574Z,4.50
2019-03-23T04:13:18.216Z,8.28
2019-03-23T04:15:46.707Z,4.22
2019-03-23T04:18:15.114Z,5.53
2019-03-23T04:20:43.585Z,5.03
2019-03-23T04:23:11.979Z,4.55
2019-03-23T04:25:40.426Z,5.87
2019-03-23T04:28:09.111Z,4.42
2019-03-23T04:30:37.522Z,6.58
2019-03-23T04:33:05.920Z,4.10
2019-03-23T04:35:34.302Z,6.10
2019-03-23T04:38:02.714Z,4.65
2019-03-23T04:40:31.419Z,6.40
2019-03-23T04:42:59.849Z,4.83
2019-03-23T04:45:28.481Z,4.55
2019-03-23T04:47:56.875Z,4.40
2019-03-23T04:50:25.292Z,5.70
2019-03-23T04:52:53.902Z,5.17
2019-03-23T04:55:22.311Z,4.60
2019-03-23T04:57:50.697Z,5.53
2019-03-23T05:00:20.042Z,5.47
2019-03-23T05:02:48.674Z,4.40
2019-03-23T05:05:17.308Z,5.03
2019-03-23T05:07:45.704Z,4.90
2019-03-23T05:10:14.729Z,6.45
2019-03-23T05:12:43.342Z,12.30
2019-03-23T05:15:11.879Z,6.15
2019-03-23T05:17:40.272Z,4.53
2019-03-23T05:20:10.878Z,5.05
2019-03-23T05:22:39.289Z,6.45
2019-03-23T05:25:09.279Z,4.17
2019-03-23T05:27:37.675Z,4.05
2019-03-23T05:30:07.810Z,4.85
2019-03-23T05:32:36.277Z,5.33
2019-03-23T05:35:06.933Z,4.95
2019-03-23T05:37:35.632Z,6.12
2019-03-23T05:40:08.037Z,7.33
2019-03-23T05:42:36.428Z,6.67
2019-03-23T05:45:07.006Z,10.85
2019-03-23T05:47:35.455Z,7.30
2019-03-23T05:50:05.887Z,5.33
2019-03-23T05:52:34.290Z,5.22
2019-03-23T05:55:02.750Z,7.30
2019-03-23T05:57:31.163Z,10.23
2019-03-23T05:59:59.799Z,8.10
2019-03-23T06:02:28.191Z,7.33
2019-03-23T06:05:02.744Z,6.20
2019-03-23T06:07:31.386Z,11.22
2019-03-23T06:09:59.788Z,50.48
2019-03-23T06:12:28.433Z,28.60
2019-03-23T06:14:56.835Z,19.35
2019-03-23T06:17:25.490Z,59.83
2019-03-23T06:19:53.863Z,88.70
2019-03-23T06:22:22.268Z,134.35
2019-03-23T06:24:50.665Z,118.33
2019-03-23T06:27:19.181Z,140.10
2019-03-23T06:29:47.630Z,230.47
2019-03-23T06:32:16.045Z,263.52
2019-03-23T06:34:44.452Z,301.60
2019-03-23T06:37:12.856Z,312.85
2019-03-23T06:39:41.254Z,248.78
2019-03-23T06:42:09.971Z,257.30
2019-03-23T06:44:38.610Z,246.50
2019-03-23T06:47:07.275Z,264.90
2019-03-23T06:49:35.912Z,245.12
2019-03-23T06:52:04.496Z,236.18
2019-03-23T06:54:33.138Z,270.97
2019-03-23T06:57:01.553Z,268.42
2019-03-23T06:59:29.969Z,234.57
2019-03-23T07:01:58.409Z,222.67
2019-03-23T07:04:26.984Z,187.20
2019-03-23T07:06:55.447Z,215.60
2019-03-23T07:09:23.869Z,177.95
2019-03-23T07:11:52.265Z,209.25
2019-03-23T07:14:20.675Z,208.45
2019-03-23T07:16:49.079Z,195.70
2019-03-23T07:19:17.754Z,214.27
2019-03-23T07:21:46.155Z,219.77
2019-03-23T07:24:14.549Z,230.10
2019-03-23T07:26:42.950Z,227.47
2019-03-23T07:29:11.358Z,230.55
2019-03-23T07:31:40.007Z,212.57
2019-03-23T07:34:08.399Z,228.45
2019-03-23T07:36:36.790Z,243.93
2019-03-23T07:39:06.947Z,218.15
2019-03-23T07:41:35.383Z,219.22
2019-03-23T07:44:04.150Z,209.30
2019-03-23T07:46:32.806Z,196.30
2019-03-23T07:49:01.502Z,203.22
2019-03-23T07:51:29.902Z,219.47
2019-03-23T07:53:58.538Z,206.45
2019-03-23T07:56:26.947Z,197.70
2019-03-23T07:58:55.345Z,192.62
2019-03-23T08:01:24.005Z,184.45
2019-03-23T08:03:52.431Z,187.00
2019-03-23T08:06:20.858Z,213.03
2019-03-23T08:08:49.246Z,207.43
2019-03-23T08:11:17.654Z,216.17
2019-03-23T08:13:46.144Z,188.80
2019-03-23T08:16:14.557Z,190.50
2019-03-23T08:18:43.036Z,191.00
2019-03-23T08:21:11.431Z,161.68
2019-03-23T08:23:39.845Z,190.30
2019-03-23T08:26:08.241Z,191.20
2019-03-23T08:28:36.911Z,169.57
2019-03-23T08:31:05.290Z,180.87
2019-03-23T08:33:33.697Z,205.18
2019-03-23T08:36:02.342Z,177.53
2019-03-23T08:38:30.746Z,186.47
2019-03-23T08:40:59.155Z,185.25
2019-03-23T08:43:27.609Z,208.68
2019-03-23T08:45:57.638Z,183.18
2019-03-23T08:48:27.622Z,166.82
2019-03-23T08:50:56.058Z,214.50
2019-03-23T08:53:29.835Z,208.45
2019-03-23T08:56:02.626Z,193.45
2019-03-23T08:58:31.975Z,192.05
2019-03-23T09:01:00.869Z,224.40
2019-03-23T09:03:29.430Z,181.90
2019-03-23T09:05:59.796Z,175.07
2019-03-23T09:08:30.806Z,191.05
2019-03-23T09:10:59.226Z,208.45
2019-03-23T09:13:40.483Z,183.87
2019-03-23T09:16:07.008Z,221.95
2019-03-23T09:18:38.202Z,193.40
2019-03-23T09:21:15.497Z,195.82
2019-03-23T09:23:43.997Z,185.65
2019-03-23T09:29:04.764Z,197.65
2019-03-23T09:31:41.817Z,201.55
2019-03-23T09:34:12.477Z,203.50
2019-03-23T09:36:41.473Z,205.05
2019-03-23T09:41:59.446Z,219.57
2019-03-23T09:44:30.923Z,221.57
2019-03-23T09:47:03.230Z,245.40
2019-03-23T09:49:31.309Z,210.82
2019-03-23T09:52:02.874Z,171.68
2019-03-23T09:54:33.681Z,201.90
2019-03-23T09:57:05.550Z,207.43
2019-03-23T09:59:39.924Z,207.83
2019-03-23T10:02:12.901Z,215.97
2019-03-23T10:04:45.045Z,231.23
2019-03-23T10:07:15.543Z,211.72
2019-03-23T10:09:44.098Z,207.77
2019-03-23T10:12:16.506Z,193.97
2019-03-23T10:14:55.021Z,211.52
2019-03-23T10:17:24.965Z,188.25
2019-03-23T10:19:53.667Z,203.88
2019-03-23T10:22:22.217Z,189.57
2019-03-23T10:24:53.067Z,196.90
2019-03-23T10:27:21.611Z,196.45
2019-03-23T10:29:52.131Z,201.15
2019-03-23T10:32:20.678Z,199.90
2019-03-23T10:34:51.495Z,200.40
2019-03-23T10:37:19.939Z,187.72
2019-03-23T10:39:48.361Z,163.12
2019-03-23T10:42:17.307Z,180.00
2019-03-23T10:44:47.331Z,169.57
2019-03-23T10:47:21.645Z,180.05
2019-03-23T10:49:50.446Z,153.05
2019-03-23T10:52:22.115Z,151.00
2019-03-23T10:54:50.735Z,146.32
2019-03-23T10:57:19.283Z,146.05
2019-03-23T11:02:42.838Z,148.07
2019-03-23T11:05:11.661Z,143.28
2019-03-23T11:07:48.001Z,145.00
2019-03-23T11:10:42.535Z,150.90
2019-03-23T11:13:11.144Z,157.80
2019-03-23T11:15:42.473Z,150.95
2019-03-23T11:18:11.103Z,133.87
2019-03-23T11:20:41.916Z,137.95
2019-03-23T11:23:10.602Z,136.22
2019-03-23T11:25:41.687Z,148.35
2019-03-23T11:28:12.032Z,140.35
2019-03-23T11:30:40.511Z,147.32
2019-03-23T11:33:10.726Z,130.27
2019-03-23T11:35:42.605Z,139.37
2019-03-23T11:38:12.203Z,132.65
2019-03-23T11:40:53.860Z,152.20
2019-03-23T11:43:13.543Z,136.82
2019-03-23T11:48:40.758Z,148.22
2019-03-23T11:51:15.880Z,153.20
2019-03-23T11:53:47.331Z,141.77
2019-03-23T11:56:16.007Z,158.47
2019-03-23T11:58:46.904Z,148.87
2019-03-23T12:01:16.927Z,147.07
2019-03-23T12:03:45.822Z,145.47
2019-03-23T12:06:14.987Z,150.50
2019-03-23T12:08:45.278Z,151.55
2019-03-23T12:11:16.259Z,140.37
2019-03-23T12:13:47.764Z,169.02
2019-03-23T12:16:18.605Z,159.55
2019-03-23T12:18:54.150Z,163.10
2019-03-23T12:21:24.389Z,158.75
2019-03-23T12:24:01.650Z,141.40
2019-03-23T12:26:30.303Z,148.02
2019-03-23T12:28:58.829Z,148.35
2019-03-23T12:31:36.399Z,149.35
2019-03-23T12:34:10.059Z,148.72
2019-03-23T12:36:41.650Z,149.97
2019-03-23T12:39:11.794Z,143.25
2019-03-23T12:41:47.759Z,136.90
2019-03-23T12:44:20.103Z,130.55
2019-03-23T12:47:03.745Z,145.65
2019-03-23T12:52:24.330Z,145.05
2019-03-23T12:55:07.315Z,116.35
2019-03-23T12:57:38.269Z,123.20
2019-03-23T13:00:12.706Z,127.15
2019-03-23T13:02:43.681Z,126.75
2019-03-23T13:05:12.249Z,137.00
2019-03-23T13:07:41.005Z,136.25
2019-03-23T13:10:11.925Z,142.18
2019-03-23T13:12:42.700Z,115.42
2019-03-23T13:15:15.923Z,121.42
2019-03-23T13:17:46.495Z,130.20
2019-03-23T13:20:19.433Z,118.72
2019-03-23T13:22:47.987Z,123.38
2019-03-23T13:25:18.834Z,123.80
2019-03-23T13:27:50.102Z,110.65
2019-03-23T13:30:23.407Z,106.65
2019-03-23T13:32:51.716Z,119.20
2019-03-23T13:35:20.392Z,112.90
2019-03-23T13:37:54.559Z,107.30
2019-03-23T13:40:23.391Z,108.17
2019-03-23T13:42:53.055Z,103.87
2019-03-23T13:45:21.673Z,102.22
2019-03-23T13:47:50.169Z,99.35
2019-03-23T13:50:29.765Z,113.08
2019-03-23T13:52:58.733Z,95.87
2019-03-23T13:55:32.228Z,92.85
2019-03-23T13:58:09.511Z,109.78
2019-03-23T14:00:38.585Z,100.67
2019-03-23T14:03:13.977Z,102.75
2019-03-23T14:05:38.531Z,87.97
2019-03-23T14:08:12.007Z,93.27
2019-03-23T14:10:42.826Z,88.47
2019-03-23T14:13:13.027Z,85.15
2019-03-23T14:15:48.586Z,93.55
2019-03-23T14:18:17.515Z,92.57
2019-03-23T14:20:46.433Z,88.78
2019-03-23T14:23:15.262Z,87.60
2019-03-23T14:25:44.192Z,89.00
2019-03-23T14:28:17.483Z,86.75
2019-03-23T14:30:55.865Z,81.53
2019-03-23T14:33:23.259Z,77.20
2019-03-23T14:35:54.996Z,88.27
2019-03-23T14:38:25.572Z,95.20
2019-03-23T14:40:57.745Z,80.62
2019-03-23T14:43:29.004Z,87.90
2019-03-23T14:46:05.387Z,87.85
2019-03-23T14:48:41.946Z,82.82
2019-03-23T14:51:13.981Z,91.08
2019-03-23T14:53:42.667Z,90.32
2019-03-23T14:56:11.177Z,86.63
2019-03-23T14:58:40.364Z,84.55
2019-03-23T15:01:11.083Z,87.80
2019-03-23T15:03:39.709Z,92.40
2019-03-23T15:06:10.174Z,77.97
2019-03-23T15:08:38.595Z,84.87
2019-03-23T15:11:07.438Z,84.35
2019-03-23T15:13:42.405Z,71.57
2019-03-23T15:16:10.725Z,79.27
2019-03-23T15:21:36.900Z,85.83
2019-03-23T15:24:10.943Z,80.87
2019-03-23T15:26:39.518Z,80.73
2019-03-23T15:29:10.335Z,75.63
2019-03-23T15:31:41.957Z,82.97
2019-03-23T15:34:12.274Z,85.50
2019-03-23T15:36:43.488Z,80.20
2019-03-23T15:39:15.200Z,85.50
2019-03-23T15:41:48.255Z,83.05
2019-03-23T15:44:18.264Z,84.05
2019-03-23T15:46:46.762Z,76.47
2019-03-23T15:49:15.230Z,85.97
2019-03-23T15:51:43.780Z,91.85
2019-03-23T15:54:12.210Z,87.50
2019-03-23T15:56:40.667Z,94.47
2019-03-23T15:59:09.833Z,93.00
2019-03-23T16:01:39.978Z,80.15
2019-03-23T16:04:11.211Z,86.92
2019-03-23T16:09:34.850Z,94.65
2019-03-23T16:12:05.034Z,93.90
2019-03-23T16:14:38.121Z,99.97
2019-03-23T16:17:16.954Z,90.50
2019-03-23T16:19:45.527Z,93.97
2019-03-23T16:22:18.158Z,89.17
2019-03-23T16:24:49.152Z,84.60
2019-03-23T16:27:17.670Z,72.08
2019-03-23T16:29:50.202Z,95.97
2019-03-23T16:32:18.759Z,93.45
2019-03-23T16:34:51.552Z,96.10
2019-03-23T16:37:19.977Z,85.40
2019-03-23T16:39:53.506Z,86.72
2019-03-23T16:42:22.259Z,91.72
2019-03-23T16:44:55.438Z,81.37
2019-03-23T16:47:27.087Z,93.92
2019-03-23T16:49:58.613Z,77.47
2019-03-23T16:52:27.078Z,78.12
2019-03-23T16:54:58.971Z,87.50
2019-03-23T16:57:27.410Z,76.35
2019-03-23T16:59:57.486Z,78.25
2019-03-23T17:02:31.405Z,72.72
2019-03-23T17:05:01.263Z,75.47
2019-03-23T17:07:29.701Z,75.87
2019-03-23T17:09:58.145Z,66.87
2019-03-23T17:12:29.829Z,74.00
2019-03-23T17:14:58.570Z,79.75
2019-03-23T17:17:28.668Z,72.55
2019-03-23T17:19:57.143Z,72.10
2019-03-23T17:22:30.511Z,72.37
2019-03-23T17:24:59.301Z,72.30
2019-03-23T17:27:33.804Z,73.83
2019-03-23T17:30:03.635Z,72.58
2019-03-23T17:32:32.684Z,71.17
2019-03-23T17:35:03.128Z,77.08
2019-03-23T17:37:33.267Z,65.97
2019-03-23T17:40:01.677Z,73.70
2019-03-23T17:42:38.257Z,70.95
2019-03-23T17:45:08.413Z,60.88
2019-03-23T17:47:37.083Z,69.60
2019-03-23T17:50:07.498Z,66.77
2019-03-23T17:52:38.623Z,65.20
2019-03-23T17:55:08.269Z,70.70
2019-03-23T17:57:38.622Z,66.15
2019-03-23T18:00:09.080Z,61.37
2019-03-23T18:02:40.698Z,66.55
2019-03-23T18:05:14.239Z,71.85
2019-03-23T18:07:44.694Z,68.92
2019-03-23T18:10:13.417Z,63.78
2019-03-23T18:12:42.146Z,70.45
2019-03-23T18:15:15.294Z,65.70
2019-03-23T18:17:45.516Z,68.33
2019-03-23T18:20:14.606Z,64.65
2019-03-23T18:22:45.706Z,63.40
2019-03-23T18:25:14.666Z,60.63
2019-03-23T18:27:43.368Z,63.00
2019-03-23T18:30:30.497Z,71.77
2019-03-23T18:32:59.175Z,55.20
2019-03-23T18:35:30.798Z,60.23
2019-03-23T18:37:59.376Z,56.30
2019-03-23T18:40:31.388Z,50.98
2019-03-23T18:43:00.026Z,53.83
2019-03-23T18:45:28.482Z,60.20
2019-03-23T18:50:50.674Z,50.45
2019-03-23T18:53:19.119Z,54.80
2019-03-23T18:55:50.614Z,60.12
2019-03-23T18:58:22.021Z,55.40
2019-03-23T19:00:50.467Z,54.63
2019-03-23T19:03:22.846Z,50.83
2019-03-23T19:05:53.060Z,50.65
2019-03-23T19:08:23.598Z,53.90
2019-03-23T19:10:52.108Z,50.90
2019-03-23T19:13:20.564Z,53.85
2019-03-23T19:15:49.411Z,57.88
2019-03-23T19:18:22.715Z,53.80
2019-03-23T19:20:59.574Z,51.70
2019-03-23T19:23:34.642Z,53.13
2019-03-23T19:26:01.873Z,50.80
2019-03-23T19:28:35.130Z,44.88
2019-03-23T19:31:03.037Z,52.38
2019-03-23T19:33:31.648Z,47.38
2019-03-23T19:36:00.295Z,51.10
2019-03-23T19:38:31.341Z,58.40
2019-03-23T19:40:59.811Z,47.70
2019-03-23T19:43:28.199Z,51.80
2019-03-23T19:45:56.866Z,52.17
2019-03-23T19:48:25.407Z,47.80
2019-03-23T19:50:54.213Z,49.23
2019-03-23T19:53:22.840Z,55.85
2019-03-23T19:55:51.785Z,44.50
2019-03-23T19:58:20.396Z,48.33
2019-03-23T20:00:48.980Z,45.75
2019-03-23T20:03:19.229Z,44.90
2019-03-23T20:05:48.095Z,50.08
2019-03-23T20:08:16.579Z,50.75
2019-03-23T20:10:45.385Z,36.85
2019-03-23T20:13:14.141Z,46.48
2019-03-23T20:15:43.300Z,51.65
2019-03-23T20:18:11.957Z,50.05
2019-03-23T20:20:40.502Z,47.67
2019-03-23T20:23:09.203Z,49.05
2019-03-23T20:25:39.706Z,44.80
2019-03-23T20:28:08.135Z,47.38
2019-03-23T20:30:37.158Z,44.40
2019-03-23T20:33:05.731Z,57.15
2019-03-23T20:35:34.278Z,48.52
2019-03-23T20:38:02.968Z,46.80
2019-03-23T20:40:31.819Z,47.80
2019-03-23T20:43:00.463Z,57.67
2019-03-23T20:45:30.052Z,47.80
2019-03-23T20:47:59.561Z,49.80
2019-03-23T20:50:28.309Z,52.33
2019-03-23T20:52:57.480Z,46.48
2019-03-23T20:55:28.626Z,43.70
2019-03-23T20:57:58.517Z,48.10
2019-03-23T21:00:27.261Z,53.85
2019-03-23T21:02:55.953Z,45.33
2019-03-23T21:05:33.115Z,39.05
2019-03-23T21:07:55.223Z,40.00
2019-03-23T21:10:24.161Z,47.88
2019-03-23T21:12:52.928Z,45.35
2019-03-23T21:15:21.896Z,38.90
2019-03-23T21:17:51.630Z,49.08
2019-03-23T21:20:20.390Z,45.15
2019-03-23T21:22:53.052Z,42.45
2019-03-23T21:25:21.741Z,56.08
2019-03-23T21:27:50.162Z,46.95
2019-03-23T21:30:19.210Z,48.70
2019-03-23T21:32:47.605Z,52.62
2019-03-23T21:35:16.142Z,55.58
2019-03-23T21:37:44.590Z,45.90
2019-03-23T21:40:13.067Z,47.60
2019-03-23T21:42:41.762Z,44.10
2019-03-23T21:45:10.347Z,47.08
2019-03-23T21:47:39.057Z,53.33
2019-03-23T21:50:09.478Z,47.08
2019-03-23T21:52:38.124Z,45.55
2019-03-23T21:55:08.018Z,42.93
2019-03-23T21:57:36.826Z,47.55
2019-03-23T22:00:07.367Z,45.35
2019-03-23T22:02:35.777Z,52.27
2019-03-23T22:05:06.127Z,49.85
2019-03-23T22:07:35.230Z,42.25
2019-03-23T22:10:08.628Z,47.90
2019-03-23T22:12:37.097Z,46.60
2019-03-23T22:15:10.070Z,42.30
2019-03-23T22:17:38.706Z,49.63
2019-03-23T22:20:08.291Z,53.58
2019-03-23T22:22:36.684Z,42.73
2019-03-23T22:25:06.968Z,40.88
2019-03-23T22:27:37.011Z,54.67
2019-03-23T22:30:13.315Z,43.85
2019-03-23T22:32:41.709Z,39.67
2019-03-23T22:35:10.365Z,50.67
2019-03-23T22:37:38.800Z,37.80
2019-03-23T22:40:09.758Z,46.77
2019-03-23T22:42:38.164Z,40.10
2019-03-23T22:45:10.155Z,38.45
2019-03-23T22:47:38.569Z,45.03
2019-03-23T22:50:08.810Z,42.53
2019-03-23T22:52:37.447Z,44.90
2019-03-23T22:55:06.889Z,46.75
2019-03-23T22:57:35.281Z,41.10
2019-03-23T23:00:05.298Z,41.35
2019-03-23T23:02:33.703Z,44.65
2019-03-23T23:05:02.137Z,42.48
2019-03-23T23:07:30.542Z,42.48
2019-03-23T23:09:58.953Z,45.55
2019-03-23T23:12:27.359Z,45.17
2019-03-23T23:15:04.471Z,47.80
2019-03-23T23:17:28.323Z,49.77
2019-03-23T23:19:57.000Z,41.48
2019-03-23T23:22:25.408Z,47.95
2019-03-23T23:24:53.794Z,42.83
2019-03-23T23:27:22.221Z,43.48
2019-03-23T23:29:50.649Z,46.55
2019-03-23T23:32:19.034Z,40.35
2019-03-23T23:34:47.455Z,52.23
2019-03-23T23:37:15.869Z,50.58
2019-03-23T23:39:44.281Z,50.23
2019-03-23T23:42:12.825Z,48.08
2019-03-23T23:44:41.347Z,40.73
2019-03-23T23:47:09.811Z,44.83
2019-03-23T23:49:38.459Z,55.30
2019-03-23T23:52:06.885Z,45.08
2019-03-23T23:54:35.299Z,44.30
2019-03-23T23:57:03.711Z,57.55
2019-03-23T23:59:32.989Z,54.18
